Time;durP1;ratioP1;P1;durP2;ratioP2;P2;SDS_P1;SDS_P2;PMS_P1;PMS_P2;Temp;Humidity;BMP_temperature;BMP_pressure;BME280_temperature;BME280_humidity;BME280_pressure;Samples;Min_cycle;Max_cycle;Signal;HPM_P1;HPM_P2
2023/07/28 00:01:51;;;;;;;12.43;11.23;;;18.30;99.90;;;;;;4919823;28;20039;-72
2023/07/28 00:04:17;;;;;;;11.68;10.50;;;18.30;99.90;;;;;;4934350;28;20042;-73
2023/07/28 00:06:44;;;;;;;11.82;10.65;;;18.30;99.90;;;;;;4921285;28;20069;-73
2023/07/28 00:09:10;;;;;;;8.75;7.95;;;18.30;99.90;;;;;;4948688;28;20038;-73
2023/07/28 00:11:36;;;;;;;15.27;12.60;;;18.30;99.90;;;;;;4947223;28;20042;-73
2023/07/28 00:14:02;;;;;;;12.95;11.25;;;18.30;99.90;;;;;;4916538;28;20598;-72
2023/07/28 00:16:29;;;;;;;8.60;7.80;;;18.30;99.90;;;;;;4934354;28;20469;-72
2023/07/28 00:18:55;;;;;;;11.95;10.80;;;18.30;99.90;;;;;;4948427;28;20766;-72
2023/07/28 00:21:22;;;;;;;9.45;8.65;;;18.30;99.90;;;;;;4952621;28;20041;-72
2023/07/28 00:23:48;;;;;;;11.70;10.57;;;18.30;99.90;;;;;;4933779;28;20034;-72
2023/07/28 00:26:15;;;;;;;10.45;9.35;;;18.30;99.90;;;;;;4934991;28;20544;-73
2023/07/28 00:28:41;;;;;;;13.35;12.02;;;18.30;99.90;;;;;;4945734;28;20046;-73
2023/07/28 00:31:07;;;;;;;11.68;10.48;;;18.30;99.90;;;;;;4941520;28;20041;-72
2023/07/28 00:33:34;;;;;;;12.05;10.60;;;18.30;99.90;;;;;;4937494;28;20143;-72
2023/07/28 00:36:00;;;;;;;9.15;8.25;;;18.30;99.90;;;;;;4937967;28;20041;-72
2023/07/28 00:38:27;;;;;;;11.55;10.35;;;18.30;99.90;;;;;;4933465;28;20429;-72
2023/07/28 00:40:57;;;;;;;8.43;7.70;;;18.30;99.90;;;;;;4937022;28;20054;-72
2023/07/28 00:43:25;;;;;;;9.32;8.43;;;18.30;99.90;;;;;;4936755;28;20046;-73
2023/07/28 00:45:51;;;;;;;10.20;9.20;;;18.30;99.90;;;;;;4934335;28;20035;-73
2023/07/28 00:48:20;;;;;;;11.32;9.82;;;18.30;99.90;;;;;;4906843;28;20686;-72
2023/07/28 00:50:48;;;;;;;11.52;10.32;;;18.30;99.90;;;;;;4951919;28;20035;-73
2023/07/28 00:53:16;;;;;;;12.95;11.10;;;18.30;99.90;;;;;;4963432;28;20054;-73
2023/07/28 00:55:42;;;;;;;11.63;10.43;;;18.30;99.90;;;;;;4953384;28;20039;-73
2023/07/28 00:58:09;;;;;;;9.60;8.70;;;18.30;99.90;;;;;;4945486;28;20034;-72
2023/07/28 01:00:36;;;;;;;8.85;7.95;;;18.30;99.90;;;;;;4936425;28;20149;-72
2023/07/28 01:03:03;;;;;;;7.55;6.85;;;18.30;99.90;;;;;;4962634;28;20505;-73
2023/07/28 01:06:06;;;;;;;8.98;8.10;;;18.30;99.90;;;;;;4952649;28;20044;-73
2023/07/28 01:08:36;;;;;;;;;;;18.30;99.90;;;;;;4932684;28;20039;-73
2023/07/28 01:11:03;;;;;;;7.90;6.97;;;18.30;99.90;;;;;;4937998;28;19921;-73
2023/07/28 01:13:29;;;;;;;11.15;9.95;;;18.30;99.90;;;;;;4955703;28;20070;-73
2023/07/28 01:15:57;;;;;;;14.65;12.00;;;18.30;99.90;;;;;;4938807;28;20410;-73
2023/07/28 01:18:24;;;;;;;11.38;10.20;;;18.30;99.90;;;;;;4918706;28;20584;-73
2023/07/28 01:20:55;;;;;;;10.18;9.18;;;18.30;99.90;;;;;;4935024;28;20911;-73
2023/07/28 01:23:48;;;;;;;7.88;7.07;;;18.30;99.90;;;;;;4921420;28;20051;-72
2023/07/28 01:26:17;;;;;;;7.95;7.15;;;18.30;99.90;;;;;;4935653;28;20039;-73
2023/07/28 01:28:45;;;;;;;9.23;8.32;;;18.30;99.90;;;;;;4947882;28;20047;-73
2023/07/28 01:31:12;;;;;;;11.20;9.77;;;18.30;99.90;;;;;;4935866;28;20042;-73
2023/07/28 01:33:38;;;;;;;11.23;9.85;;;18.30;99.90;;;;;;4922492;28;20869;-72
2023/07/28 01:36:05;;;;;;;10.60;9.50;;;18.30;99.90;;;;;;4936361;28;20409;-73
2023/07/28 01:38:31;;;;;;;10.07;8.63;;;18.30;99.90;;;;;;4932409;28;20037;-73
2023/07/28 01:40:57;;;;;;;12.80;10.60;;;18.30;99.90;;;;;;4919785;28;20041;-73
2023/07/28 01:43:24;;;;;;;9.82;8.68;;;18.30;99.90;;;;;;4965898;28;20019;-72
2023/07/28 01:45:51;;;;;;;14.32;12.50;;;18.30;99.90;;;;;;4934682;28;20039;-72
2023/07/28 01:48:17;;;;;;;10.13;9.13;;;18.40;99.90;;;;;;4917359;28;20038;-72
2023/07/28 01:50:44;;;;;;;13.00;11.10;;;18.30;99.90;;;;;;4936007;28;20042;-72
2023/07/28 01:53:10;;;;;;;13.77;11.85;;;18.30;99.90;;;;;;4922627;28;20035;-73
2023/07/28 01:55:37;;;;;;;12.23;10.18;;;18.30;99.90;;;;;;4921131;28;20045;-73
2023/07/28 01:58:03;;;;;;;12.50;10.93;;;18.30;99.90;;;;;;4933060;28;20033;-72
2023/07/28 02:00:30;;;;;;;13.23;11.15;;;18.30;99.90;;;;;;4919917;28;20532;-72
2023/07/28 02:02:58;;;;;;;10.60;9.27;;;18.30;99.90;;;;;;4934795;28;20038;-73
2023/07/28 02:05:24;;;;;;;17.70;13.43;;;18.30;99.90;;;;;;4908462;28;20043;-72
2023/07/28 02:07:50;;;;;;;16.35;12.90;;;18.30;99.90;;;;;;4920553;28;20035;-72
2023/07/28 02:10:17;;;;;;;20.02;13.93;;;18.30;99.90;;;;;;4955315;28;20050;-73
2023/07/28 02:12:44;;;;;;;18.25;12.15;;;18.30;99.90;;;;;;4934332;28;20042;-73
2023/07/28 02:15:11;;;;;;;12.32;10.93;;;18.30;99.90;;;;;;4935690;28;20047;-73
2023/07/28 02:17:37;;;;;;;16.10;11.60;;;18.30;99.90;;;;;;4919302;28;20079;-73
2023/07/28 02:20:04;;;;;;;12.48;10.23;;;18.30;99.90;;;;;;4920745;28;20414;-73
2023/07/28 02:22:31;;;;;;;12.85;9.95;;;18.30;99.90;;;;;;4935729;28;20036;-73
2023/07/28 02:25:01;;;;;;;17.50;13.57;;;18.30;99.90;;;;;;4934224;28;20069;-72
2023/07/28 02:27:30;;;;;;;15.95;11.88;;;18.30;99.90;;;;;;4963596;28;20043;-73
2023/07/28 02:29:56;;;;;;;16.73;12.75;;;18.30;99.90;;;;;;4934270;28;20043;-72
2023/07/28 02:32:23;;;;;;;14.38;11.18;;;18.30;99.90;;;;;;4937588;28;20041;-73
2023/07/28 02:34:49;;;;;;;13.02;10.45;;;18.30;99.90;;;;;;4952020;28;20039;-73
2023/07/28 02:37:16;;;;;;;19.05;11.77;;;18.30;99.90;;;;;;4933291;28;20042;-74
2023/07/28 02:39:43;;;;;;;15.00;11.75;;;18.30;99.90;;;;;;4950260;28;20038;-73
2023/07/28 02:42:09;;;;;;;14.07;11.13;;;18.30;99.90;;;;;;4946749;28;20516;-73
2023/07/28 02:44:36;;;;;;;20.10;14.27;;;18.30;99.90;;;;;;4953856;28;20050;-72
2023/07/28 02:47:02;;;;;;;25.60;16.25;;;18.30;99.90;;;;;;4952098;28;20414;-73
2023/07/28 02:49:29;;;;;;;21.58;13.82;;;18.30;99.90;;;;;;4921566;28;20050;-73
2023/07/28 02:51:55;;;;;;;17.77;13.45;;;18.30;99.90;;;;;;4935380;28;20042;-73
2023/07/28 02:54:23;;;;;;;20.10;13.85;;;18.30;99.90;;;;;;4919984;28;20034;-73
2023/07/28 02:56:50;;;;;;;17.40;12.32;;;18.30;99.90;;;;;;4931580;28;20718;-73
2023/07/28 02:59:16;;;;;;;18.05;12.60;;;18.30;99.90;;;;;;4935901;28;20694;-72
2023/07/28 03:01:43;;;;;;;20.17;11.95;;;18.30;99.90;;;;;;4936786;28;20529;-71
2023/07/28 03:04:09;;;;;;;16.88;12.73;;;18.30;99.90;;;;;;4923725;28;20034;-71
2023/07/28 03:07:05;;;;;;;26.60;16.27;;;18.30;99.90;;;;;;4886444;28;20700;-71
2023/07/28 03:09:31;;;;;;;20.08;14.70;;;18.30;99.90;;;;;;4934827;28;20034;-72
2023/07/28 03:12:00;;;;;;;26.92;17.02;;;18.40;99.90;;;;;;4920798;28;20057;-71
2023/07/28 03:14:28;;;;;;;20.65;15.27;;;18.30;99.90;;;;;;4937894;28;20034;-71
2023/07/28 03:16:55;;;;;;;23.23;15.07;;;18.40;99.90;;;;;;4934089;28;20046;-71
2023/07/28 03:19:21;;;;;;;22.92;15.57;;;18.30;99.90;;;;;;4937576;28;20037;-71
2023/07/28 03:21:48;;;;;;;16.73;12.40;;;18.40;99.90;;;;;;4965692;28;20026;-71
2023/07/28 03:24:14;;;;;;;18.45;13.38;;;18.40;99.90;;;;;;4935859;28;20398;-72
2023/07/28 03:26:41;;;;;;;20.00;14.55;;;18.40;99.90;;;;;;4947973;28;20506;-73
2023/07/28 03:29:07;;;;;;;22.20;14.80;;;18.40;99.90;;;;;;4935205;28;20434;-73
2023/07/28 03:31:35;;;;;;;24.48;15.70;;;18.40;99.90;;;;;;4952255;28;20042;-73
2023/07/28 03:34:03;;;;;;;28.42;16.27;;;18.40;99.90;;;;;;4936584;28;20035;-72
2023/07/28 03:36:31;;;;;;;21.13;15.02;;;18.40;99.90;;;;;;4936408;28;20043;-73
2023/07/28 03:38:59;;;;;;;28.17;16.65;;;18.40;99.90;;;;;;4935192;28;20042;-73
2023/07/28 03:41:25;;;;;;;23.33;15.38;;;18.40;99.90;;;;;;4936277;28;20042;-72
2023/07/28 03:43:52;;;;;;;34.63;19.90;;;18.40;99.90;;;;;;4950374;28;20070;-73
2023/07/28 03:46:19;;;;;;;25.30;17.55;;;18.40;99.90;;;;;;4938044;28;20061;-73
2023/07/28 03:48:45;;;;;;;29.67;16.70;;;18.40;99.90;;;;;;4916345;28;20049;-72
2023/07/28 03:51:12;;;;;;;24.63;16.73;;;18.40;99.90;;;;;;4950827;28;20041;-73
2023/07/28 03:53:38;;;;;;;21.85;15.68;;;18.40;99.90;;;;;;4935946;28;20046;-72
2023/07/28 03:56:05;;;;;;;31.02;18.50;;;18.40;99.90;;;;;;4933877;28;20034;-72
2023/07/28 03:58:32;;;;;;;28.88;20.52;;;18.40;99.90;;;;;;4916397;28;20413;-73
2023/07/28 04:00:58;;;;;;;37.90;22.13;;;18.40;99.90;;;;;;4939067;28;20792;-73
2023/07/28 04:03:25;;;;;;;27.77;18.42;;;18.40;99.90;;;;;;4951894;28;20038;-73
2023/07/28 04:05:51;;;;;;;25.35;15.70;;;18.40;99.90;;;;;;4937470;28;20023;-73
2023/07/28 04:08:17;;;;;;;26.70;17.83;;;18.40;99.90;;;;;;4915159;28;20046;-72
2023/07/28 04:10:44;;;;;;;32.85;20.33;;;18.40;99.90;;;;;;4960210;28;20047;-72
2023/07/28 04:13:10;;;;;;;33.15;20.90;;;18.40;99.90;;;;;;4919386;28;20375;-71
2023/07/28 04:15:36;;;;;;;31.30;21.42;;;18.50;99.90;;;;;;4950868;28;20039;-72
2023/07/28 04:18:03;;;;;;;32.40;19.67;;;18.40;99.90;;;;;;4947170;28;20105;-72
2023/07/28 04:20:29;;;;;;;26.75;16.00;;;18.50;99.90;;;;;;4934795;28;20035;-72
2023/07/28 04:22:56;;;;;;;23.85;16.08;;;18.50;99.90;;;;;;4932811;28;20038;-72
2023/07/28 04:25:23;;;;;;;25.85;17.55;;;18.50;99.90;;;;;;4948668;28;21147;-73
2023/07/28 04:27:49;;;;;;;26.70;16.77;;;18.50;99.90;;;;;;4931907;28;20042;-73
2023/07/28 04:30:16;;;;;;;42.85;23.15;;;18.50;99.90;;;;;;4917606;28;20043;-72
2023/07/28 04:32:42;;;;;;;34.25;20.33;;;18.50;99.90;;;;;;4950328;28;20034;-72
2023/07/28 04:35:14;;;;;;;36.47;20.25;;;18.50;99.90;;;;;;4919648;28;20031;-72
2023/07/28 04:37:50;;;;;;;32.13;19.80;;;18.50;99.90;;;;;;4917075;28;20477;-73
2023/07/28 04:40:25;;;;;;;34.70;19.80;;;18.50;99.90;;;;;;4935040;28;20027;-72
2023/07/28 04:42:53;;;;;;;33.45;19.10;;;18.50;99.90;;;;;;4920523;28;20054;-73
2023/07/28 04:45:20;;;;;;;25.42;15.95;;;18.50;99.90;;;;;;4923393;28;21159;-73
2023/07/28 04:47:47;;;;;;;33.00;20.33;;;18.50;99.90;;;;;;4963326;28;20041;-72
2023/07/28 04:50:14;;;;;;;28.35;17.23;;;18.50;99.90;;;;;;4933932;28;20042;-72
2023/07/28 04:52:59;;;;;;;23.92;14.65;;;18.60;99.90;;;;;;4932920;28;20035;-72
2023/07/28 04:55:44;;;;;;;45.63;21.05;;;18.60;99.90;;;;;;4939800;28;20041;-72
2023/07/28 04:58:11;;;;;;;28.33;17.40;;;18.60;99.90;;;;;;4947489;28;22084;-73
2023/07/28 05:00:46;;;;;;;28.30;16.48;;;18.60;99.90;;;;;;4923484;28;20523;-73
2023/07/28 05:03:12;;;;;;;26.38;16.60;;;18.60;99.90;;;;;;4933778;28;20027;-73
2023/07/28 05:05:46;;;;;;;27.60;17.27;;;18.60;99.90;;;;;;4923641;28;20602;-73
2023/07/28 05:08:15;;;;;;;30.35;18.38;;;18.60;99.90;;;;;;4935544;28;20046;-73
2023/07/28 05:10:44;;;;;;;22.90;15.73;;;18.60;99.90;;;;;;4925091;28;20046;-73
2023/07/28 05:13:12;;;;;;;33.75;18.70;;;18.60;99.90;;;;;;4937497;28;20817;-73
2023/07/28 05:15:43;;;;;;;40.25;20.60;;;18.60;99.90;;;;;;4942640;28;20133;-73
2023/07/28 05:18:17;;;;;;;30.48;18.85;;;18.60;99.90;;;;;;4921184;28;20037;-72
2023/07/28 05:21:17;;;;;;;38.67;20.30;;;18.60;99.90;;;;;;4921424;28;20546;-73
2023/07/28 05:23:44;;;;;;;28.48;17.98;;;18.60;99.90;;;;;;4940366;28;20086;-73
2023/07/28 05:26:11;;;;;;;35.83;20.77;;;18.60;99.90;;;;;;4937504;28;20378;-73
2023/07/28 05:28:37;;;;;;;33.70;19.48;;;18.60;99.90;;;;;;4935595;28;20522;-73
2023/07/28 05:31:05;;;;;;;30.17;17.67;;;18.60;99.90;;;;;;4949568;28;20046;-72
2023/07/28 05:33:32;;;;;;;55.90;31.58;;;18.60;99.90;;;;;;4935348;28;20034;-72
2023/07/28 05:36:04;;;;;;;30.65;19.38;;;18.60;99.90;;;;;;4937867;28;20042;-73
2023/07/28 05:38:31;;;;;;;33.78;21.55;;;18.60;99.90;;;;;;4960456;28;20038;-73
2023/07/28 05:41:00;;;;;;;35.33;19.95;;;18.60;99.90;;;;;;4932812;28;20042;-72
2023/07/28 05:43:27;;;;;;;26.95;17.52;;;18.60;99.90;;;;;;4922556;28;20031;-73
2023/07/28 05:46:00;;;;;;;30.15;18.75;;;18.60;99.90;;;;;;4919448;28;20035;-73
2023/07/28 05:48:29;;;;;;;23.05;15.18;;;18.60;99.90;;;;;;4936115;28;20062;-73
2023/07/28 05:50:56;;;;;;;26.33;17.02;;;18.60;99.90;;;;;;4936503;28;20050;-72
2023/07/28 05:53:22;;;;;;;40.25;22.17;;;18.70;99.90;;;;;;4936491;28;20507;-73
2023/07/28 05:55:53;;;;;;;42.72;22.27;;;18.70;99.90;;;;;;4934441;28;20035;-73
2023/07/28 05:58:20;;;;;;;38.75;23.17;;;18.70;99.90;;;;;;4919158;28;20039;-72
2023/07/28 06:00:48;;;;;;;34.00;19.63;;;18.70;99.90;;;;;;4916879;28;20039;-72
2023/07/28 06:03:34;;;;;;;30.70;19.02;;;18.70;99.90;;;;;;4935986;28;20042;-72
2023/07/28 06:06:08;;;;;;;31.67;20.20;;;18.70;99.90;;;;;;4925999;28;20042;-72
2023/07/28 06:08:35;;;;;;;29.10;19.88;;;18.70;99.90;;;;;;4931889;28;20042;-72
2023/07/28 06:11:06;;;;;;;27.25;18.25;;;18.70;99.90;;;;;;4922976;28;20043;-72
2023/07/28 06:13:32;;;;;;;24.95;17.73;;;18.80;99.90;;;;;;4923539;28;20603;-72
2023/07/28 06:15:59;;;;;;;31.13;20.42;;;18.80;99.90;;;;;;4920033;28;20376;-72
2023/07/28 06:18:26;;;;;;;28.17;18.25;;;18.80;99.90;;;;;;4921112;28;20045;-73
2023/07/28 06:21:04;;;;;;;26.25;18.77;;;18.80;99.90;;;;;;4936969;28;20045;-73
2023/07/28 06:23:30;;;;;;;34.83;20.55;;;18.90;99.90;;;;;;4937357;28;20033;-73
2023/07/28 06:25:58;;;;;;;22.85;15.13;;;18.90;99.90;;;;;;4937324;28;20482;-72
2023/07/28 06:28:24;;;;;;;25.70;17.83;;;18.90;99.90;;;;;;4946767;28;20039;-72
2023/07/28 06:30:55;;;;;;;22.73;15.88;;;19.00;99.90;;;;;;4945440;28;20047;-72
2023/07/28 06:33:22;;;;;;;44.97;23.40;;;19.00;99.90;;;;;;4934980;28;21449;-72
2023/07/28 06:35:49;;;;;;;25.30;17.63;;;19.00;99.90;;;;;;4922522;28;20138;-72
2023/07/28 06:38:15;;;;;;;28.15;19.23;;;19.00;99.90;;;;;;4919481;28;20038;-73
2023/07/28 06:40:42;;;;;;;25.90;17.20;;;19.00;99.90;;;;;;4919089;28;20046;-73
2023/07/28 06:43:08;;;;;;;21.75;15.27;;;19.00;99.90;;;;;;4937746;28;21626;-73
2023/07/28 06:45:35;;;;;;;26.58;17.83;;;19.00;99.90;;;;;;4921233;28;20041;-73
2023/07/28 06:48:03;;;;;;;21.63;15.77;;;19.00;99.90;;;;;;4917178;28;20049;-74
2023/07/28 06:50:30;;;;;;;25.95;18.50;;;19.10;99.90;;;;;;4960905;28;20039;-73
2023/07/28 06:52:56;;;;;;;22.15;15.63;;;19.10;99.90;;;;;;4920185;28;20478;-74
2023/07/28 06:55:25;;;;;;;25.08;17.15;;;19.10;99.90;;;;;;4935069;28;20030;-74
2023/07/28 06:57:52;;;;;;;19.80;15.40;;;19.10;99.90;;;;;;4916591;28;20054;-73
2023/07/28 07:00:18;;;;;;;21.33;15.80;;;19.10;99.90;;;;;;4945437;28;20051;-73
2023/07/28 07:02:45;;;;;;;28.98;18.92;;;19.20;99.90;;;;;;4951517;28;20043;-73
2023/07/28 07:05:11;;;;;;;26.58;17.15;;;19.20;99.90;;;;;;4946350;28;20035;-73
2023/07/28 07:07:39;;;;;;;25.48;18.23;;;19.20;99.90;;;;;;4921492;28;20041;-73
2023/07/28 07:10:06;;;;;;;44.65;25.65;;;19.20;99.90;;;;;;4947788;28;20500;-73
2023/07/28 07:12:32;;;;;;;34.42;22.08;;;19.20;99.90;;;;;;4962178;28;20031;-73
2023/07/28 07:14:59;;;;;;;32.65;19.85;;;19.20;99.90;;;;;;4936045;28;21597;-73
2023/07/28 07:17:25;;;;;;;43.88;24.77;;;19.20;99.90;;;;;;4933116;28;20050;-73
2023/07/28 07:19:52;;;;;;;33.78;23.58;;;19.30;99.90;;;;;;4962265;28;20461;-72
2023/07/28 07:22:18;;;;;;;37.78;23.35;;;19.30;99.90;;;;;;4916882;28;20035;-72
2023/07/28 07:24:45;;;;;;;28.45;19.55;;;19.30;99.90;;;;;;4933187;28;20031;-73
2023/07/28 07:27:11;;;;;;;32.75;21.65;;;19.30;99.90;;;;;;4931794;28;20046;-74
2023/07/28 07:29:39;;;;;;;27.75;20.15;;;19.40;99.90;;;;;;4932946;28;20042;-74
2023/07/28 07:32:07;;;;;;;28.15;19.58;;;19.50;99.90;;;;;;4936340;28;20045;-73
2023/07/28 07:34:36;;;;;;;30.83;20.08;;;19.60;99.90;;;;;;4950128;28;20031;-73
2023/07/28 07:37:03;;;;;;;24.80;17.10;;;19.70;99.90;;;;;;4931488;28;20049;-74
2023/07/28 07:39:29;;;;;;;23.35;16.35;;;19.70;99.90;;;;;;4931611;28;20039;-73
2023/07/28 07:41:56;;;;;;;28.63;19.08;;;19.80;99.90;;;;;;4917150;28;20500;-73
2023/07/28 07:44:23;;;;;;;28.30;18.83;;;19.80;99.90;;;;;;4935346;28;20043;-73
2023/07/28 07:46:50;;;;;;;25.13;17.67;;;19.80;99.90;;;;;;4911704;28;20042;-74
2023/07/28 07:49:16;;;;;;;19.63;15.50;;;19.80;99.90;;;;;;4930156;28;20042;-74
2023/07/28 07:51:43;;;;;;;27.95;18.92;;;19.90;99.90;;;;;;4931900;28;20050;-74
2023/07/28 07:54:09;;;;;;;24.17;17.33;;;19.90;99.90;;;;;;4935089;28;20481;-73
2023/07/28 07:56:36;;;;;;;22.75;15.75;;;19.90;99.90;;;;;;4946193;28;20023;-77
2023/07/28 07:59:03;;;;;;;18.42;14.32;;;19.90;99.90;;;;;;4944206;28;20042;-73
2023/07/28 08:01:29;;;;;;;18.55;14.38;;;20.00;99.90;;;;;;4920425;28;20042;-74
2023/07/28 08:03:56;;;;;;;17.83;14.18;;;20.00;99.90;;;;;;4935549;28;20042;-73
2023/07/28 08:06:22;;;;;;;28.42;18.38;;;20.00;99.90;;;;;;4929327;28;20058;-73
2023/07/28 08:08:50;;;;;;;19.08;14.68;;;20.00;99.90;;;;;;4913243;28;20049;-73
2023/07/28 08:11:17;;;;;;;21.75;16.33;;;20.00;99.90;;;;;;4951213;28;20045;-74
2023/07/28 08:13:44;;;;;;;21.10;15.88;;;20.10;99.90;;;;;;4937377;28;20054;-73
2023/07/28 08:16:11;;;;;;;16.98;12.63;;;20.10;99.90;;;;;;4934593;28;20034;-73
2023/07/28 08:18:37;;;;;;;24.38;16.13;;;20.10;99.90;;;;;;4950588;28;20119;-73
2023/07/28 08:21:03;;;;;;;16.48;12.75;;;20.00;99.90;;;;;;4950900;28;20028;-74
2023/07/28 08:23:30;;;;;;;19.80;14.50;;;20.10;99.90;;;;;;4935960;28;20035;-73
2023/07/28 08:25:56;;;;;;;16.85;12.50;;;20.10;99.90;;;;;;4954153;28;20042;-73
2023/07/28 08:28:22;;;;;;;15.77;13.15;;;20.20;99.90;;;;;;4933363;28;20038;-74
2023/07/28 08:30:56;;;;;;;17.65;13.55;;;20.40;99.90;;;;;;4938268;28;20042;-73
2023/07/28 08:33:22;;;;;;;19.42;15.48;;;20.40;99.90;;;;;;4935289;28;20531;-73
2023/07/28 08:35:49;;;;;;;19.10;14.88;;;20.40;99.90;;;;;;4937147;28;20058;-73
2023/07/28 08:38:15;;;;;;;17.58;14.02;;;20.40;99.90;;;;;;4932724;28;20061;-73
2023/07/28 08:40:44;;;;;;;18.27;13.77;;;20.40;99.90;;;;;;4935286;28;20043;-73
2023/07/28 08:43:11;;;;;;;19.70;13.52;;;20.40;99.90;;;;;;4935270;28;20039;-73
2023/07/28 08:45:38;;;;;;;15.70;13.07;;;20.40;99.90;;;;;;4934487;28;20047;-73
2023/07/28 08:48:05;;;;;;;23.65;17.95;;;20.30;99.90;;;;;;4902566;28;20057;-72
2023/07/28 08:50:31;;;;;;;19.73;15.65;;;20.30;99.90;;;;;;4923138;28;20324;-72
2023/07/28 08:52:59;;;;;;;18.25;15.38;;;20.20;99.90;;;;;;4951507;28;20042;-73
2023/07/28 08:55:25;;;;;;;21.05;16.27;;;20.30;99.90;;;;;;4935744;28;20050;-73
2023/07/28 08:57:52;;;;;;;17.48;13.82;;;20.50;99.90;;;;;;4949911;28;20027;-73
2023/07/28 09:00:19;;;;;;;18.40;14.18;;;20.70;99.90;;;;;;4952639;28;20034;-75
2023/07/28 09:02:49;;;;;;;17.20;12.95;;;20.80;99.90;;;;;;4953137;28;20050;-74
2023/07/28 09:05:20;;;;;;;16.83;13.82;;;20.90;99.90;;;;;;4951004;28;20038;-71
2023/07/28 09:07:47;;;;;;;17.15;13.07;;;21.00;99.90;;;;;;4950021;28;20038;-71
2023/07/28 09:10:14;;;;;;;13.57;11.52;;;21.10;99.90;;;;;;4936081;28;20070;-72
2023/07/28 09:12:48;;;;;;;18.08;13.27;;;21.10;99.90;;;;;;4921907;28;20039;-72
2023/07/28 09:15:16;;;;;;;13.35;10.90;;;21.10;99.90;;;;;;4934173;28;20035;-72
2023/07/28 09:17:44;;;;;;;15.77;10.82;;;21.00;99.90;;;;;;4935678;28;20037;-72
2023/07/28 09:20:16;;;;;;;13.65;11.63;;;20.90;99.90;;;;;;4931437;28;20415;-72
2023/07/28 09:22:46;;;;;;;13.02;10.38;;;21.00;99.90;;;;;;4952864;28;20419;-72
2023/07/28 09:25:17;;;;;;;12.05;9.85;;;21.10;99.90;;;;;;4960444;28;21572;-72
2023/07/28 09:27:51;;;;;;;14.38;11.75;;;21.20;99.90;;;;;;4935111;28;20737;-72
2023/07/28 09:30:17;;;;;;;14.07;11.30;;;21.20;99.90;;;;;;4961911;28;20065;-72
2023/07/28 09:32:48;;;;;;;14.10;11.30;;;21.20;99.90;;;;;;4948432;28;20429;-72
2023/07/28 09:35:15;;;;;;;14.73;12.10;;;21.20;99.90;;;;;;4939962;28;20062;-72
2023/07/28 09:37:49;;;;;;;15.43;12.57;;;21.20;99.90;;;;;;4920251;28;20903;-71
2023/07/28 09:40:23;;;;;;;12.02;10.63;;;21.30;99.90;;;;;;4968879;28;20118;-70
2023/07/28 09:42:50;;;;;;;14.40;12.43;;;21.60;99.90;;;;;;4922899;28;20500;-70
2023/07/28 09:45:17;;;;;;;13.55;12.15;;;21.90;99.90;;;;;;4956117;28;20038;-71
2023/07/28 09:47:46;;;;;;;13.10;11.80;;;22.30;99.90;;;;;;4953103;28;20030;-71
2023/07/28 09:50:15;;;;;;;14.38;12.40;;;22.60;99.90;;;;;;4923401;28;20058;-72
2023/07/28 09:52:53;;;;;;;12.23;10.75;;;22.90;99.90;;;;;;4933423;28;20031;-72
2023/07/28 09:55:20;;;;;;;12.48;10.57;;;23.00;99.90;;;;;;4953903;28;20397;-71
2023/07/28 09:57:55;;;;;;;13.90;10.18;;;23.20;99.90;;;;;;4938456;28;20034;-72
2023/07/28 10:00:23;;;;;;;15.73;12.55;;;23.70;99.90;;;;;;4954719;28;21294;-72
2023/07/28 10:02:50;;;;;;;14.10;11.50;;;23.90;99.90;;;;;;4935035;28;20041;-74
2023/07/28 10:05:17;;;;;;;16.65;14.43;;;24.00;99.90;;;;;;4936892;28;20105;-74
2023/07/28 10:07:45;;;;;;;12.40;11.10;;;24.10;99.90;;;;;;4949811;28;20372;-74
2023/07/28 10:10:13;;;;;;;13.10;11.52;;;24.10;99.90;;;;;;4920744;28;20043;-73
2023/07/28 10:12:41;;;;;;;10.35;9.35;;;24.00;99.90;;;;;;4960405;28;20041;-73
2023/07/28 10:15:11;;;;;;;12.60;10.48;;;24.10;99.90;;;;;;4921426;28;20402;-73
2023/07/28 10:17:37;;;;;;;10.82;9.57;;;24.00;99.90;;;;;;4954530;28;20057;-73
2023/07/28 10:20:08;;;;;;;9.43;8.48;;;24.10;99.90;;;;;;4931988;28;20065;-73
2023/07/28 10:22:45;;;;;;;11.53;10.30;;;24.00;99.90;;;;;;4956535;28;20525;-73
2023/07/28 10:25:11;;;;;;;11.23;9.32;;;24.10;99.90;;;;;;4957361;28;20030;-73
2023/07/28 10:27:43;;;;;;;10.00;9.00;;;24.20;99.90;;;;;;4924490;28;20057;-73
2023/07/28 10:30:12;;;;;;;9.73;8.85;;;24.20;99.90;;;;;;4948582;28;20053;-74
2023/07/28 10:32:39;;;;;;;10.75;9.52;;;24.20;99.90;;;;;;4937135;28;20309;-72
2023/07/28 10:35:11;;;;;;;8.65;7.43;;;24.30;99.90;;;;;;4951848;28;20031;-73
2023/07/28 10:37:38;;;;;;;12.32;9.98;;;24.50;99.90;;;;;;4935467;28;20042;-74
2023/07/28 10:40:31;;;;;;;10.90;9.75;;;24.70;99.90;;;;;;4919049;28;20578;-74
2023/07/28 10:43:01;;;;;;;10.13;9.05;;;25.10;99.90;;;;;;4938807;28;20046;-74
2023/07/28 10:45:30;;;;;;;11.35;10.07;;;25.60;99.90;;;;;;4954748;28;20028;-73
2023/07/28 10:48:00;;;;;;;11.32;10.23;;;25.90;99.90;;;;;;4950986;28;20046;-74
2023/07/28 10:50:28;;;;;;;10.98;9.88;;;25.90;99.90;;;;;;4935082;28;20042;-74
2023/07/28 10:52:55;;;;;;;8.75;7.95;;;25.90;99.90;;;;;;4951690;28;20015;-73
2023/07/28 10:55:27;;;;;;;9.50;8.70;;;26.00;99.90;;;;;;4949739;28;20031;-73
2023/07/28 10:57:54;;;;;;;12.20;10.73;;;26.20;99.90;;;;;;4947193;28;20042;-77
2023/07/28 11:00:22;;;;;;;8.73;7.93;;;26.10;99.90;;;;;;4934104;28;20039;-73
2023/07/28 11:02:51;;;;;;;7.50;6.90;;;26.10;99.90;;;;;;4934475;28;20050;-73
2023/07/28 11:05:27;;;;;;;8.25;7.45;;;26.60;99.90;;;;;;4954913;28;20026;-73
2023/07/28 11:08:03;;;;;;;8.60;7.80;;;26.80;99.90;;;;;;4948411;28;23035;-73
2023/07/28 11:10:30;;;;;;;9.00;7.65;;;26.80;99.90;;;;;;4950691;28;20038;-72
2023/07/28 11:13:00;;;;;;;7.43;6.72;;;27.10;99.90;;;;;;4951523;28;20047;-74
2023/07/28 11:15:26;;;;;;;7.45;6.82;;;27.30;99.90;;;;;;4953955;28;20034;-75
2023/07/28 11:17:54;;;;;;;9.80;7.53;;;27.40;99.90;;;;;;4935007;28;20050;-73
2023/07/28 11:20:24;;;;;;;8.35;7.60;;;27.20;99.90;;;;;;4952366;28;20602;-73
2023/07/28 11:22:54;;;;;;;12.55;11.35;;;26.90;99.90;;;;;;4946286;28;20528;-73
2023/07/28 11:25:21;;;;;;;12.30;11.00;;;26.80;99.90;;;;;;4938950;28;20689;-73
2023/07/28 11:27:48;;;;;;;8.85;8.15;;;26.80;99.90;;;;;;4935081;28;20046;-73
2023/07/28 11:30:17;;;;;;;7.97;7.28;;;26.80;99.90;;;;;;4951124;28;20038;-72
2023/07/28 11:32:45;;;;;;;7.47;6.78;;;26.90;99.90;;;;;;4932472;28;20042;-73
2023/07/28 11:35:13;;;;;;;7.55;6.88;;;27.00;99.90;;;;;;4948395;28;20027;-74
2023/07/28 11:37:42;;;;;;;8.07;7.25;;;27.40;99.90;;;;;;4952295;28;20389;-74
2023/07/28 11:40:11;;;;;;;7.97;7.18;;;27.40;99.90;;;;;;4934326;28;20049;-73
2023/07/28 11:42:39;;;;;;;7.30;6.70;;;27.30;99.90;;;;;;4937920;28;20252;-73
2023/07/28 11:45:07;;;;;;;7.28;6.57;;;27.10;99.90;;;;;;4934633;28;20050;-74
2023/07/28 11:47:34;;;;;;;9.25;7.60;;;27.10;99.90;;;;;;4934081;28;20038;-73
2023/07/28 11:50:00;;;;;;;7.75;7.07;;;27.00;99.90;;;;;;4933428;28;20444;-73
2023/07/28 11:52:36;;;;;;;9.38;8.48;;;27.00;99.90;;;;;;4951586;28;20047;-74
2023/07/28 11:55:06;;;;;;;9.45;8.65;;;27.10;99.90;;;;;;4950025;28;20643;-74
2023/07/28 11:57:33;;;;;;;8.70;7.18;;;27.10;99.90;;;;;;4932527;28;20042;-74
2023/07/28 12:00:00;;;;;;;10.18;9.10;;;27.10;99.90;;;;;;4934378;28;20046;-74
2023/07/28 12:02:28;;;;;;;9.77;7.88;;;27.30;99.90;;;;;;4937722;28;20410;-74
2023/07/28 12:04:56;;;;;;;9.30;8.38;;;27.40;99.90;;;;;;4951921;28;20042;-75
2023/07/28 12:07:32;;;;;;;8.20;7.22;;;27.50;99.90;;;;;;4953022;28;20041;-74
2023/07/28 12:10:08;;;;;;;6.82;6.22;;;27.60;99.90;;;;;;4945075;28;20503;-73
2023/07/28 12:12:45;;;;;;;6.00;5.40;;;27.80;99.90;;;;;;4935556;28;20043;-73
2023/07/28 12:15:27;;;;;;;8.50;7.72;;;28.10;99.90;;;;;;4937921;28;20133;-73
2023/07/28 12:18:20;;;;;;;7.68;6.82;;;28.40;99.90;;;;;;4930364;28;20116;-73
2023/07/28 12:20:49;;;;;;;8.10;7.40;;;28.50;99.90;;;;;;4950623;28;20047;-75
2023/07/28 12:23:18;;;;;;;6.20;5.60;;;28.40;99.90;;;;;;4953079;28;20038;-74
2023/07/28 12:25:45;;;;;;;7.75;6.50;;;28.40;99.90;;;;;;4951049;28;20027;-74
2023/07/28 12:28:12;;;;;;;6.43;5.82;;;28.50;99.90;;;;;;4946982;28;20057;-73
2023/07/28 12:30:39;;;;;;;5.93;5.28;;;28.80;99.90;;;;;;4932009;28;20054;-74
2023/07/28 12:33:06;;;;;;;7.80;6.47;;;29.10;99.90;;;;;;4935160;28;20039;-73
2023/07/28 12:35:36;;;;;;;5.97;5.47;;;29.30;99.90;;;;;;4934864;28;20026;-74
2023/07/28 12:38:04;;;;;;;6.43;5.82;;;29.20;99.90;;;;;;4948576;28;20049;-74